Terminal Aerodrome Forecast
Issued by NWS

Home | Current Version | Previous Version | Text Only | Print | Product List | Glossary On
Versions: 1 2 3 4 5 6 7 8 9 10 11 12 13 14 15 16 17 18 19 20 21 22 23 24
000
FTUS44 KLIX 032339
TAFHUM
TAF
KHUM 032339Z 0400/0424 22007KT P6SM FEW040 BKN250
     FM040100 20004KT P6SM BKN250
     FM040800 18004KT P6SM SCT006 BKN090
      TEMPO 0409/0412 5SM BR
     FM041300 20006KT P6SM SCT030 BKN100
     FM042000 19008KT P6SM SCT035 BKN050 PROB30 0421/0424 3SM TSRA
      BKN030CB=

USA.gov is the U.S. government's official web portal to all federal, state and local government web resources and services.